Time;durP1;ratioP1;P1;durP2;ratioP2;P2;SDS_P1;SDS_P2;PMS_P1;PMS_P2;Temp;Humidity;BMP_temperature;BMP_pressure;BME280_temperature;BME280_humidity;BME280_pressure;Samples;Min_cycle;Max_cycle;Signal;HPM_P1;HPM_P2
2023/12/09 00:00:26;;;;;;;;;;;7.70;99.90;;;;;;5118153;27;19923;-84
2023/12/09 00:02:51;;;;;;;;;;;7.70;99.90;;;;;;5117376;27;19930;-83
2023/12/09 00:05:17;;;;;;;;;;;7.70;99.90;;;;;;5116934;27;19935;-84
2023/12/09 00:07:42;;;;;;;;;;;7.70;99.90;;;;;;5131255;27;20443;-83
2023/12/09 00:10:09;;;;;;;;;;;7.70;99.90;;;;;;5117317;27;20502;-83
2023/12/09 00:12:34;;;;;;;;;;;7.70;99.90;;;;;;5115598;27;20168;-81
2023/12/09 00:15:00;;;;;;;;;;;7.70;99.90;;;;;;5112615;27;19947;-82
2023/12/09 00:17:26;;;;;;;;;;;7.70;99.90;;;;;;5111968;27;19984;-87
2023/12/09 00:19:51;;;;;;;;;;;7.70;99.90;;;;;;5113081;27;19931;-83
2023/12/09 00:22:17;;;;;;;;;;;7.70;99.90;;;;;;5117111;27;19924;-81
2023/12/09 00:24:42;;;;;;;;;;;7.70;99.90;;;;;;5121248;27;19931;-83
2023/12/09 00:27:08;;;;;;;;;;;7.70;99.90;;;;;;5127137;27;20409;-82
2023/12/09 00:29:33;;;;;;;;;;;7.70;99.90;;;;;;5128227;27;19943;-88
2023/12/09 00:31:59;;;;;;;;;;;7.70;99.90;;;;;;5128034;27;20018;-84
2023/12/09 00:34:24;;;;;;;;;;;7.70;99.90;;;;;;5118191;27;19935;-83
2023/12/09 00:36:50;;;;;;;;;;;7.70;99.90;;;;;;5117922;27;19924;-82
2023/12/09 00:39:16;;;;;;;;;;;7.70;99.90;;;;;;5113820;27;19924;-82
2023/12/09 00:41:41;;;;;;;;;;;7.70;99.90;;;;;;5115882;27;19966;-86
2023/12/09 00:44:07;;;;;;;;;;;7.70;99.90;;;;;;5116506;27;19924;-83
2023/12/09 00:46:32;;;;;;;;;;;7.70;99.90;;;;;;5117182;27;20013;-83
2023/12/09 00:48:58;;;;;;;;;;;7.60;99.90;;;;;;5117168;27;19935;-84
2023/12/09 00:51:23;;;;;;;;;;;7.70;99.90;;;;;;5116100;27;19923;-83
2023/12/09 00:53:49;;;;;;;;;;;7.70;99.90;;;;;;5116557;27;19951;-83
2023/12/09 00:56:14;;;;;;;;;;;7.70;99.90;;;;;;5119582;27;19938;-84
2023/12/09 00:58:40;;;;;;;;;;;7.70;99.90;;;;;;5098822;27;20405;-81
2023/12/09 01:01:06;;;;;;;;;;;7.70;99.90;;;;;;5113138;27;19928;-83
2023/12/09 01:03:31;;;;;;;;;;;7.70;99.90;;;;;;5115124;27;19924;-82
2023/12/09 01:05:57;;;;;;;;;;;7.70;99.90;;;;;;5115459;27;19935;-83
2023/12/09 01:08:23;;;;;;;;;;;7.70;99.90;;;;;;5117654;27;19928;-84
2023/12/09 01:10:49;;;;;;;;;;;7.70;99.90;;;;;;5114741;27;20014;-82
2023/12/09 01:13:15;;;;;;;;;;;7.70;99.90;;;;;;5111213;27;20047;-83
2023/12/09 01:15:40;;;;;;;;;;;7.70;99.90;;;;;;5111807;27;19963;-84
2023/12/09 01:18:06;;;;;;;;;;;7.70;99.90;;;;;;5117017;27;20374;-85
2023/12/09 01:20:31;;;;;;;;;;;7.70;99.90;;;;;;5113668;27;19990;-82
2023/12/09 01:22:57;;;;;;;;;;;7.70;99.90;;;;;;5121011;27;19928;-82
2023/12/09 01:25:23;;;;;;;;;;;7.70;99.90;;;;;;5102012;27;19977;-83
2023/12/09 01:27:48;;;;;;;;;;;7.60;99.90;;;;;;5114704;27;19923;-83
2023/12/09 01:30:14;;;;;;;;;;;7.70;99.90;;;;;;5123062;27;20054;-82
2023/12/09 01:32:39;;;;;;;;;;;7.70;99.90;;;;;;5111932;27;19935;-81
2023/12/09 01:35:05;;;;;;;;;;;7.70;99.90;;;;;;5113355;27;19935;-83
2023/12/09 01:37:30;;;;;;;;;;;7.70;99.90;;;;;;5112628;27;20061;-81
2023/12/09 01:39:56;;;;;;;;;;;7.70;99.90;;;;;;5114573;27;19974;-83
2023/12/09 01:42:22;;;;;;;;;;;7.70;99.90;;;;;;5120053;27;19924;-83
2023/12/09 01:44:47;;;;;;;;;;;7.70;99.90;;;;;;5114190;27;20396;-84
2023/12/09 01:47:13;;;;;;;;;;;7.70;99.90;;;;;;5119825;27;20586;-81
2023/12/09 01:49:38;;;;;;;;;;;7.70;99.90;;;;;;5112324;27;19971;-82
2023/12/09 01:52:04;;;;;;;;;;;7.70;99.90;;;;;;5118801;27;19927;-82
2023/12/09 01:54:30;;;;;;;;;;;7.70;99.90;;;;;;5123072;27;20094;-82
2023/12/09 01:56:56;;;;;;;;;;;7.80;99.90;;;;;;5113417;27;20046;-82
2023/12/09 01:59:22;;;;;;;;;;;7.70;99.90;;;;;;5113658;27;20489;-83
2023/12/09 02:01:48;;;;;;;;;;;7.70;99.90;;;;;;5117473;27;19928;-83
2023/12/09 02:04:14;;;;;;;;;;;7.80;99.90;;;;;;5116888;27;19924;-82
2023/12/09 02:06:40;;;;;;;;;;;7.70;99.90;;;;;;5114312;27;20298;-82
2023/12/09 02:09:05;;;;;;;;;;;7.80;99.90;;;;;;5112006;27;19927;-85
2023/12/09 02:11:50;;;;;;;;;;;7.80;99.90;;;;;;5116642;27;19939;-82
2023/12/09 02:14:21;;;;;;;;;;;7.80;99.90;;;;;;5118257;27;19927;-83
2023/12/09 02:16:51;;;;;;;;;;;7.80;99.90;;;;;;5112030;27;20010;-83
2023/12/09 02:19:17;;;;;;;;;;;7.80;99.90;;;;;;5110151;28;19935;-83
2023/12/09 02:21:58;;;;;;;;;;;7.80;99.90;;;;;;5114342;27;19932;-81
2023/12/09 02:24:24;;;;;;;;;;;7.80;99.90;;;;;;5111788;27;20128;-81
2023/12/09 02:26:50;;;;;;;;;;;7.80;99.90;;;;;;5110224;27;19932;-81
2023/12/09 02:29:17;;;;;;;;;;;7.80;99.90;;;;;;5113618;27;19924;-82
2023/12/09 02:31:43;;;;;;;;;;;7.80;99.90;;;;;;5113444;27;20401;-82
2023/12/09 02:34:09;;;;;;;;;;;7.80;99.90;;;;;;5115396;27;19923;-82
2023/12/09 02:36:35;;;;;;;;;;;7.80;99.90;;;;;;5112132;27;19938;-83
2023/12/09 02:39:02;;;;;;;;;;;7.70;99.90;;;;;;5117647;27;19923;-81
2023/12/09 02:41:27;;;;;;;;;;;7.70;99.90;;;;;;5119855;27;19982;-85
2023/12/09 02:43:53;;;;;;;;;;;7.70;99.90;;;;;;5121574;27;19959;-83
2023/12/09 02:46:18;;;;;;;;;;;7.80;99.90;;;;;;5110524;27;19924;-82
2023/12/09 02:48:44;;;;;;;;;;;7.70;99.90;;;;;;5111721;28;19945;-83
2023/12/09 02:51:10;;;;;;;;;;;7.70;99.90;;;;;;5119645;27;20023;-82
2023/12/09 02:53:35;;;;;;;;;;;7.70;99.90;;;;;;5113014;27;19923;-83
2023/12/09 02:56:01;;;;;;;;;;;7.70;99.90;;;;;;5110512;27;20289;-83
2023/12/09 02:58:26;;;;;;;;;;;7.70;99.90;;;;;;5114742;27;19934;-82
2023/12/09 03:00:52;;;;;;;;;;;7.70;99.90;;;;;;5108264;28;19934;-81
2023/12/09 03:03:17;;;;;;;;;;;7.60;99.90;;;;;;5111437;28;20274;-81
2023/12/09 03:05:43;;;;;;;;;;;7.60;99.90;;;;;;5111648;27;19996;-81
2023/12/09 03:08:08;;;;;;;;;;;7.60;99.90;;;;;;5113816;27;20019;-82
2023/12/09 03:10:34;;;;;;;;;;;7.60;99.90;;;;;;5102820;28;19936;-82
2023/12/09 03:12:59;;;;;;;;;;;7.60;99.90;;;;;;5118640;27;19923;-82
2023/12/09 03:15:25;;;;;;;;;;;7.60;99.90;;;;;;5098886;27;19943;-86
2023/12/09 03:17:51;;;;;;;;;;;7.60;99.90;;;;;;5115998;27;19924;-82
2023/12/09 03:20:18;;;;;;;;;;;7.60;99.90;;;;;;5117433;27;19927;-82
2023/12/09 03:22:43;;;;;;;;;;;7.60;99.90;;;;;;5116871;27;19931;-82
2023/12/09 03:25:09;;;;;;;;;;;7.50;99.90;;;;;;5119230;27;19931;-84
2023/12/09 03:27:34;;;;;;;;;;;7.50;99.90;;;;;;5115158;27;19939;-83
2023/12/09 03:30:00;;;;;;;;;;;7.60;99.90;;;;;;5117880;27;20393;-82
2023/12/09 03:32:25;;;;;;;;;;;7.60;99.90;;;;;;5118530;27;19927;-81
2023/12/09 03:34:51;;;;;;;;;;;7.60;99.90;;;;;;5125401;27;19924;-84
2023/12/09 03:37:16;;;;;;;;;;;7.60;99.90;;;;;;5115789;27;19951;-85
2023/12/09 03:39:42;;;;;;;;;;;7.60;99.90;;;;;;5117970;27;19930;-82
2023/12/09 03:42:07;;;;;;;;;;;7.60;99.90;;;;;;5116732;27;20078;-81
2023/12/09 03:44:33;;;;;;;;;;;7.60;99.90;;;;;;5119792;27;20308;-84
2023/12/09 03:46:59;;;;;;;;;;;7.60;99.90;;;;;;5113640;27;19924;-83
2023/12/09 03:49:24;;;;;;;;;;;7.60;99.90;;;;;;5125939;27;20198;-82
2023/12/09 03:51:50;;;;;;;;;;;7.60;99.90;;;;;;5133548;27;19927;-84
2023/12/09 03:54:15;;;;;;;;;;;7.60;99.90;;;;;;5125947;27;19928;-81
2023/12/09 03:56:41;;;;;;;;;;;7.60;99.90;;;;;;5120755;27;19931;-83
2023/12/09 03:59:06;;;;;;;;;;;7.60;99.90;;;;;;5123450;27;19992;-82
2023/12/09 04:01:32;;;;;;;;;;;7.60;99.90;;;;;;5114216;27;19971;-82
2023/12/09 04:03:57;;;;;;;;;;;7.60;99.90;;;;;;5115539;27;19968;-83
2023/12/09 04:06:23;;;;;;;;;;;7.70;99.90;;;;;;5121208;27;20286;-82
2023/12/09 04:08:48;;;;;;;;;;;7.70;99.90;;;;;;5118084;27;20401;-82
2023/12/09 04:11:14;;;;;;;;;;;7.70;99.90;;;;;;5118852;27;19976;-83
2023/12/09 04:13:40;;;;;;;;;;;7.70;99.90;;;;;;5117011;27;19931;-83
2023/12/09 04:16:06;;;;;;;;;;;7.70;99.90;;;;;;5117048;27;19935;-82
2023/12/09 04:18:31;;;;;;;;;;;7.70;99.90;;;;;;5116674;27;19924;-82
2023/12/09 04:20:57;;;;;;;;;;;7.70;99.90;;;;;;5117960;27;19930;-83
2023/12/09 04:23:23;;;;;;;;;;;7.70;99.90;;;;;;5118359;27;19928;-82
2023/12/09 04:25:48;;;;;;;;;;;7.70;99.90;;;;;;5115628;27;19924;-83
2023/12/09 04:28:14;;;;;;;;;;;7.70;99.90;;;;;;5115560;27;20382;-82
2023/12/09 04:30:39;;;;;;;;;;;7.70;99.90;;;;;;5123203;27;19924;-83
2023/12/09 04:33:05;;;;;;;;;;;7.70;99.90;;;;;;5116638;27;20026;-86
2023/12/09 04:35:30;;;;;;;;;;;7.70;99.90;;;;;;5140836;27;19924;-83
2023/12/09 04:37:56;;;;;;;;;;;7.70;99.90;;;;;;5117340;27;19924;-82
2023/12/09 04:40:22;;;;;;;;;;;7.70;99.90;;;;;;5118387;27;19990;-83
2023/12/09 04:42:47;;;;;;;;;;;7.70;99.90;;;;;;5121818;27;19924;-81
2023/12/09 04:45:13;;;;;;;;;;;7.60;99.90;;;;;;5115464;27;20390;-85
2023/12/09 04:47:39;;;;;;;;;;;7.60;99.90;;;;;;5119868;27;20393;-82
2023/12/09 04:50:08;;;;;;;;;;;7.60;99.90;;;;;;5116804;27;19924;-81
2023/12/09 04:52:33;;;;;;;;;;;7.70;99.90;;;;;;5118285;27;20287;-82
2023/12/09 04:54:59;;;;;;;;;;;7.70;99.90;;;;;;5100564;27;19942;-82
2023/12/09 04:57:24;;;;;;;;;;;7.70;99.90;;;;;;5117027;27;19927;-82
2023/12/09 04:59:50;;;;;;;;;;;7.70;99.90;;;;;;5121532;27;19930;-81
2023/12/09 05:02:15;;;;;;;;;;;7.70;99.90;;;;;;5117254;27;20362;-82
2023/12/09 05:04:42;;;;;;;;;;;7.70;99.90;;;;;;5119426;27;19954;-81
2023/12/09 05:07:07;;;;;;;;;;;7.60;99.90;;;;;;5115032;27;19973;-82
2023/12/09 05:09:33;;;;;;;;;;;7.60;99.90;;;;;;5113850;27;20366;-83
2023/12/09 05:11:58;;;;;;;;;;;7.60;99.90;;;;;;5114748;27;20399;-81
2023/12/09 05:14:24;;;;;;;;;;;7.60;99.90;;;;;;5111420;27;19931;-82
2023/12/09 05:16:50;;;;;;;;;;;7.60;99.90;;;;;;5112951;27;20328;-82
2023/12/09 05:19:15;;;;;;;;;;;7.60;99.90;;;;;;5114843;27;20285;-81
2023/12/09 05:21:41;;;;;;;;;;;7.60;99.90;;;;;;5114674;27;20358;-81
2023/12/09 05:24:07;;;;;;;;;;;7.60;99.90;;;;;;5113699;27;20322;-82
2023/12/09 05:26:33;;;;;;;;;;;7.60;99.90;;;;;;5112086;27;20294;-83
2023/12/09 05:28:58;;;;;;;;;;;7.50;99.90;;;;;;5111627;27;20019;-83
2023/12/09 05:31:24;;;;;;;;;;;7.60;99.90;;;;;;5116419;27;20010;-82
2023/12/09 05:33:50;;;;;;;;;;;7.50;99.90;;;;;;5110632;27;20049;-84
2023/12/09 05:36:16;;;;;;;;;;;7.50;99.90;;;;;;5114163;28;19932;-82
2023/12/09 05:38:41;;;;;;;;;;;7.50;99.90;;;;;;5110684;27;20362;-82
2023/12/09 05:41:08;;;;;;;;;;;7.50;99.90;;;;;;5112396;27;19923;-84
2023/12/09 05:43:37;;;;;;;;;;;7.50;99.90;;;;;;5138462;27;19924;-81
2023/12/09 05:46:03;;;;;;;;;;;7.50;99.90;;;;;;5118185;27;19946;-82
2023/12/09 05:48:29;;;;;;;;;;;7.50;99.90;;;;;;5113523;27;19927;-82
2023/12/09 05:50:54;;;;;;;;;;;7.40;99.90;;;;;;5112978;27;20444;-84
2023/12/09 05:53:21;;;;;;;;;;;7.40;99.90;;;;;;5119940;27;19930;-84
2023/12/09 05:55:47;;;;;;;;;;;7.40;99.90;;;;;;5116362;27;19924;-82
2023/12/09 05:58:13;;;;;;;;;;;7.40;99.90;;;;;;5114054;27;19934;-82
2023/12/09 06:00:39;;;;;;;;;;;7.40;99.90;;;;;;5110493;27;20518;-82
2023/12/09 06:03:04;;;;;;;;;;;7.30;99.90;;;;;;5112074;27;20010;-88
2023/12/09 06:05:30;;;;;;;;;;;7.30;99.90;;;;;;5113199;27;20428;-82
2023/12/09 06:07:55;;;;;;;;;;;7.40;99.90;;;;;;5112883;27;20366;-85
2023/12/09 06:10:21;;;;;;;;;;;7.30;99.90;;;;;;5110784;27;19931;-83
2023/12/09 06:12:46;;;;;;;;;;;7.30;99.90;;;;;;5113639;27;19975;-83
2023/12/09 06:15:12;;;;;;;;;;;7.20;99.90;;;;;;5113023;27;19934;-81
2023/12/09 06:17:38;;;;;;;;;;;7.20;99.90;;;;;;5112939;27;19923;-83
2023/12/09 06:20:06;;;;;;;;;;;7.20;99.90;;;;;;5109594;27;19923;-83
2023/12/09 06:22:32;;;;;;;;;;;7.20;99.90;;;;;;5111086;27;19973;-81
2023/12/09 06:24:58;;;;;;;;;;;7.20;99.90;;;;;;5114720;27;19928;-82
2023/12/09 06:27:25;;;;;;;;;;;7.20;99.90;;;;;;5115840;27;19939;-83
2023/12/09 06:29:51;;;;;;;;;;;7.20;99.90;;;;;;5112666;27;19924;-85
2023/12/09 06:32:16;;;;;;;;;;;7.20;99.90;;;;;;5114433;27;20361;-84
2023/12/09 06:34:42;;;;;;;;;;;7.20;99.90;;;;;;5118857;27;19924;-83
2023/12/09 06:37:07;;;;;;;;;;;7.20;99.90;;;;;;5152545;27;19977;-83
2023/12/09 06:39:33;;;;;;;;;;;7.20;99.90;;;;;;5117257;27;19942;-84
2023/12/09 06:42:00;;;;;;;;;;;7.20;99.90;;;;;;5113824;27;19924;-81
2023/12/09 06:44:25;;;;;;;;;;;7.10;99.90;;;;;;5119563;27;19932;-82
2023/12/09 06:46:51;;;;;;;;;;;7.10;99.90;;;;;;5115293;27;19927;-85
2023/12/09 06:49:21;;;;;;;;;;;7.10;99.90;;;;;;5115059;27;19923;-81
2023/12/09 06:51:47;;;;;;;;;;;7.10;99.90;;;;;;5109995;28;20445;-82
2023/12/09 06:54:13;;;;;;;;;;;7.10;99.90;;;;;;5111592;28;20405;-82
2023/12/09 06:56:39;;;;;;;;;;;7.10;99.90;;;;;;5113899;27;19977;-83
2023/12/09 06:59:05;;;;;;;;;;;7.10;99.90;;;;;;5115043;27;19928;-84
2023/12/09 07:01:30;;;;;;;;;;;7.10;99.90;;;;;;5111946;28;19985;-81
2023/12/09 07:03:56;;;;;;;;;;;7.20;99.90;;;;;;5118371;27;19962;-81
2023/12/09 07:06:22;;;;;;;;;;;7.10;99.90;;;;;;5150661;27;19976;-82
2023/12/09 07:08:48;;;;;;;;;;;7.10;99.90;;;;;;5113208;27;19938;-83
2023/12/09 07:11:15;;;;;;;;;;;7.10;99.90;;;;;;5117144;28;19923;-87
2023/12/09 07:13:41;;;;;;;;;;;7.10;99.90;;;;;;5114981;28;20006;-82
2023/12/09 07:16:09;;;;;;;;;;;7.10;99.90;;;;;;5116253;28;19924;-83
2023/12/09 07:18:35;;;;;;;;;;;7.10;99.90;;;;;;5111220;28;20022;-83
2023/12/09 07:21:00;;;;;;;;;;;7.10;99.90;;;;;;5119584;28;19935;-81
2023/12/09 07:23:26;;;;;;;;;;;7.10;99.90;;;;;;5112459;28;19924;-83
2023/12/09 07:25:51;;;;;;;;;;;7.10;99.90;;;;;;5114894;28;20268;-81
2023/12/09 07:28:17;;;;;;;;;;;7.10;99.90;;;;;;5115049;28;19928;-82
2023/12/09 07:30:43;;;;;;;;;;;7.10;99.90;;;;;;5116786;28;20018;-81
2023/12/09 07:33:08;;;;;;;;;;;7.10;99.90;;;;;;5111291;28;19923;-84
2023/12/09 07:35:34;;;;;;;;;;;7.10;99.90;;;;;;5115393;28;19931;-84
2023/12/09 07:37:59;;;;;;;;;;;7.10;99.90;;;;;;5124405;28;20023;-86
2023/12/09 07:40:25;;;;;;;;;;;7.10;99.90;;;;;;5110236;28;19932;-86
2023/12/09 07:42:51;;;;;;;;;;;7.10;99.90;;;;;;5113478;28;19928;-84
2023/12/09 07:45:16;;;;;;;;;;;7.00;99.90;;;;;;5108235;28;19930;-81
2023/12/09 07:47:42;;;;;;;;;;;7.00;99.90;;;;;;5116753;28;19966;-83
2023/12/09 07:50:08;;;;;;;;;;;7.00;99.90;;;;;;5119318;28;19947;-85
2023/12/09 07:52:33;;;;;;;;;;;7.00;99.90;;;;;;5120223;27;19969;-84
2023/12/09 07:54:59;;;;;;;;;;;7.00;99.90;;;;;;5111821;28;19934;-85
2023/12/09 07:57:25;;;;;;;;;;;7.00;99.90;;;;;;5109421;28;19940;-83
2023/12/09 07:59:50;;;;;;;;;;;7.00;99.90;;;;;;5117638;27;19970;-83
2023/12/09 08:02:16;;;;;;;;;;;7.00;99.90;;;;;;5114611;27;19932;-85
2023/12/09 08:04:42;;;;;;;;;;;6.90;99.90;;;;;;5116205;27;19931;-84
2023/12/09 08:07:07;;;;;;;;;;;6.90;99.90;;;;;;5124525;27;20401;-83
2023/12/09 08:09:33;;;;;;;;;;;6.90;99.90;;;;;;5117642;27;19934;-83
2023/12/09 08:11:58;;;;;;;;;;;6.90;99.90;;;;;;5120479;27;19924;-83
2023/12/09 08:14:24;;;;;;;;;;;6.90;99.90;;;;;;5116439;27;19932;-82
2023/12/09 08:16:49;;;;;;;;;;;6.80;99.90;;;;;;5114315;27;20366;-83
2023/12/09 08:19:15;;;;;;;;;;;6.70;99.90;;;;;;5110725;27;19955;-84
2023/12/09 08:21:40;;;;;;;;;;;6.70;99.90;;;;;;5097236;28;19973;-84
2023/12/09 08:24:07;;;;;;;;;;;6.70;99.90;;;;;;5116325;28;20046;-81
2023/12/09 08:26:33;;;;;;;;;;;6.60;99.90;;;;;;5115718;28;19981;-82
2023/12/09 08:29:00;;;;;;;;;;;6.60;99.90;;;;;;5114861;28;19966;-86
2023/12/09 08:31:25;;;;;;;;;;;6.60;99.90;;;;;;5118345;27;19935;-86
2023/12/09 08:33:51;;;;;;;;;;;6.50;99.90;;;;;;5124605;27;20379;-87
2023/12/09 08:36:17;;;;;;;;;;;6.50;99.90;;;;;;5112678;27;19924;-83
2023/12/09 08:38:42;;;;;;;;;;;6.50;99.90;;;;;;5100144;28;19924;-83
2023/12/09 08:41:08;;;;;;;;;;;6.50;99.90;;;;;;5144646;27;19931;-83
2023/12/09 08:43:34;;;;;;;;;;;6.60;99.90;;;;;;5108778;28;19932;-87
2023/12/09 08:46:00;;;;;;;;;;;6.60;99.90;;;;;;5098292;28;19927;-83
2023/12/09 08:48:25;;;;;;;;;;;6.60;99.90;;;;;;5100583;28;20401;-82
2023/12/09 08:50:51;;;;;;;;;;;6.60;99.90;;;;;;5111919;28;19928;-87
2023/12/09 08:53:16;;;;;;;;;;;6.70;99.90;;;;;;5108584;28;20396;-82
2023/12/09 08:55:42;;;;;;;;;;;6.70;99.90;;;;;;5096171;28;19924;-83
2023/12/09 08:58:08;;;;;;;;;;;6.70;99.90;;;;;;5106589;28;19930;-83
2023/12/09 09:00:33;;;;;;;;;;;6.80;99.90;;;;;;5107510;28;19932;-83
2023/12/09 09:02:59;;;;;;;;;;;6.80;99.90;;;;;;5109628;28;19920;-83
2023/12/09 09:05:24;;;;;;;;;;;6.80;99.90;;;;;;5111365;28;19976;-84
2023/12/09 09:07:52;;;;;;;;;;;6.90;99.90;;;;;;5117064;27;20438;-85
2023/12/09 09:10:22;;;;;;;;;;;6.90;99.90;;;;;;5112472;28;20038;-83
2023/12/09 09:12:48;;;;;;;;;;;7.00;99.90;;;;;;5114196;27;19923;-83
2023/12/09 09:15:15;;;;;;;;;;;7.00;99.90;;;;;;5114751;27;19931;-83
2023/12/09 09:17:40;;;;;;;;;;;7.00;99.90;;;;;;5110392;27;20390;-82
2023/12/09 09:20:06;;;;;;;;;;;7.10;99.90;;;;;;5111658;28;19931;-83
2023/12/09 09:22:35;;;;;;;;;;;7.20;99.90;;;;;;5109354;28;20386;-83
2023/12/09 09:25:01;;;;;;;;;;;7.30;99.90;;;;;;5126512;27;20289;-84
2023/12/09 09:27:27;;;;;;;;;;;7.40;99.90;;;;;;5118350;27;19923;-83
2023/12/09 09:29:53;;;;;;;;;;;7.40;99.90;;;;;;5119754;27;19931;-84
2023/12/09 09:32:18;;;;;;;;;;;7.40;99.90;;;;;;5114914;27;19924;-85
2023/12/09 09:34:44;;;;;;;;;;;7.40;99.90;;;;;;5119132;27;20471;-85
2023/12/09 09:37:09;;;;;;;;;;;7.40;99.90;;;;;;5127282;27;19939;-85
2023/12/09 09:39:35;;;;;;;;;;;7.40;99.90;;;;;;5120697;27;19987;-83
2023/12/09 09:42:03;;;;;;;;;;;7.30;99.90;;;;;;5114739;27;19976;-83
2023/12/09 09:44:32;;;;;;;;;;;7.30;99.90;;;;;;5119484;27;20282;-84
2023/12/09 09:47:00;;;;;;;;;;;7.30;99.90;;;;;;5118924;27;20424;-81
2023/12/09 09:49:29;;;;;;;;;;;7.40;99.90;;;;;;5114621;27;19939;-82
2023/12/09 09:51:56;;;;;;;;;;;7.40;99.90;;;;;;5108814;27;19923;-82
2023/12/09 09:54:26;;;;;;;;;;;7.50;99.90;;;;;;5122864;27;19975;-85
2023/12/09 09:56:51;;;;;;;;;;;7.50;99.90;;;;;;5149760;27;20018;-82
2023/12/09 09:59:17;;;;;;;;;;;7.50;99.90;;;;;;5115202;27;19938;-86
2023/12/09 10:01:44;;;;;;;;;;;7.60;99.90;;;;;;5112719;28;19940;-82
2023/12/09 10:04:12;;;;;;;;;;;7.60;99.90;;;;;;5114973;27;19923;-84
2023/12/09 10:06:39;;;;;;;;;;;7.60;99.90;;;;;;5097304;28;20018;-83
2023/12/09 10:09:05;;;;;;;;;;;7.60;99.90;;;;;;5114581;27;19928;-83
2023/12/09 10:11:31;;;;;;;;;;;7.70;99.90;;;;;;5113873;27;19928;-83
2023/12/09 10:13:57;;;;;;;;;;;7.60;99.90;;;;;;5108580;28;20256;-84
2023/12/09 10:16:22;;;;;;;;;;;7.70;99.90;;;;;;5105506;28;19930;-82
2023/12/09 10:18:48;;;;;;;;;;;7.70;99.90;;;;;;5111532;28;19924;-83
2023/12/09 10:21:14;;;;;;;;;;;7.70;99.90;;;;;;5112402;28;19939;-85
2023/12/09 10:23:40;;;;;;;;;;;7.60;99.90;;;;;;5122555;27;19924;-83
2023/12/09 10:26:06;;;;;;;;;;;7.60;99.90;;;;;;5110666;27;19936;-83
2023/12/09 10:28:32;;;;;;;;;;;7.60;99.90;;;;;;5103987;27;19927;-82
2023/12/09 10:31:00;;;;;;;;;;;7.70;99.90;;;;;;5116865;27;19984;-85
2023/12/09 10:33:29;;;;;;;;;;;7.60;99.90;;;;;;5108667;27;20264;-85
2023/12/09 10:35:56;;;;;;;;;;;7.60;99.90;;;;;;5116716;27;19924;-84
2023/12/09 10:38:22;;;;;;;;;;;7.60;99.90;;;;;;5122362;28;19977;-84
2023/12/09 10:40:49;;;;;;;;;;;7.60;99.90;;;;;;5122589;28;19928;-86
2023/12/09 10:43:15;;;;;;;;;;;7.50;99.90;;;;;;5120477;28;20014;-83
2023/12/09 10:45:41;;;;;;;;;;;7.50;99.90;;;;;;5117731;28;19924;-83
2023/12/09 10:48:07;;;;;;;;;;;7.50;99.90;;;;;;5117823;28;20342;-83
2023/12/09 10:50:33;;;;;;;;;;;7.50;99.90;;;;;;5115984;28;20022;-83
2023/12/09 10:52:58;;;;;;;;;;;7.60;99.90;;;;;;5110975;28;20389;-84
2023/12/09 10:55:24;;;;;;;;;;;7.60;99.90;;;;;;5110471;28;19927;-84
2023/12/09 10:57:50;;;;;;;;;;;7.60;99.90;;;;;;5098360;28;20391;-83
2023/12/09 11:00:17;;;;;;;;;;;7.60;99.90;;;;;;5097702;28;19977;-82
2023/12/09 11:02:44;;;;;;;;;;;7.70;99.90;;;;;;5114106;28;19931;-84
2023/12/09 11:05:10;;;;;;;;;;;7.70;99.90;;;;;;5111843;28;19924;-89
2023/12/09 11:07:36;;;;;;;;;;;7.80;99.90;;;;;;5097862;28;19928;-83
2023/12/09 11:10:03;;;;;;;;;;;7.80;99.90;;;;;;5111685;28;19928;-83
2023/12/09 11:12:32;;;;;;;;;;;7.80;99.90;;;;;;5147219;27;20056;-84
2023/12/09 11:15:31;;;;;;;;;;;7.90;99.90;;;;;;5099457;28;19976;-84
2023/12/09 11:18:07;;;;;;;;;;;7.80;99.90;;;;;;5100130;28;20656;-83
2023/12/09 11:20:33;;;;;;;;;;;7.90;99.90;;;;;;5107234;28;19927;-85
2023/12/09 11:23:00;;;;;;;;;;;7.90;99.90;;;;;;5109149;28;19931;-83
2023/12/09 11:25:26;;;;;;;;;;;7.90;99.90;;;;;;5106727;28;19928;-83
2023/12/09 11:27:52;;;;;;;;;;;7.90;99.90;;;;;;5105451;28;20334;-84
2023/12/09 11:30:34;;;;;;;;;;;7.90;99.90;;;;;;5103848;28;19959;-83
2023/12/09 11:33:00;;;;;;;;;;;7.90;99.90;;;;;;5093271;28;19924;-83
2023/12/09 11:35:26;;;;;;;;;;;7.90;99.90;;;;;;5097497;28;19928;-83
2023/12/09 11:37:52;;;;;;;;;;;7.90;99.90;;;;;;5108657;28;19924;-84
2023/12/09 11:40:18;;;;;;;;;;;7.90;99.90;;;;;;5120850;27;20339;-84
2023/12/09 11:42:45;;;;;;;;;;;7.90;99.90;;;;;;5111663;28;19998;-84
2023/12/09 11:45:11;;;;;;;;;;;8.00;99.90;;;;;;5130375;27;20367;-85
2023/12/09 11:47:37;;;;;;;;;;;7.90;99.90;;;;;;5101068;28;19931;-84
2023/12/09 11:50:03;;;;;;;;;;;7.90;99.90;;;;;;5110111;28;19924;-84
2023/12/09 11:52:29;;;;;;;;;;;8.00;99.90;;;;;;5116102;28;20019;-85
2023/12/09 11:54:58;;;;;;;;;;;8.00;99.90;;;;;;5102526;28;19932;-82
2023/12/09 11:57:24;;;;;;;;;;;8.00;99.90;;;;;;5106894;28;19924;-83
2023/12/09 11:59:51;;;;;;;;;;;8.00;99.90;;;;;;5097240;28;19986;-84
2023/12/09 12:02:16;;;;;;;;;;;8.00;99.90;;;;;;5096766;28;19967;-83
2023/12/09 12:04:42;;;;;;;;;;;8.10;99.90;;;;;;5110253;28;19959;-85
2023/12/09 12:07:07;;;;;;;;;;;8.10;99.90;;;;;;5111075;27;19932;-85
2023/12/09 12:09:33;;;;;;;;;;;8.10;99.90;;;;;;5114161;28;19931;-85
2023/12/09 12:11:59;;;;;;;;;;;8.10;99.90;;;;;;5114030;28;19935;-84
2023/12/09 12:14:25;;;;;;;;;;;8.10;99.90;;;;;;5108437;28;19978;-85
2023/12/09 12:16:50;;;;;;;;;;;8.20;99.90;;;;;;5113646;27;20286;-84
2023/12/09 12:19:16;;;;;;;;;;;8.20;99.90;;;;;;5116220;28;20034;-83
2023/12/09 12:21:42;;;;;;;;;;;8.20;99.90;;;;;;5151094;27;19923;-83
2023/12/09 12:24:08;;;;;;;;;;;8.20;99.90;;;;;;5118153;28;19931;-88
2023/12/09 12:26:34;;;;;;;;;;;8.20;99.90;;;;;;5115880;28;20005;-85
2023/12/09 12:29:00;;;;;;;;;;;8.30;99.90;;;;;;5101700;28;19924;-85
2023/12/09 12:31:27;;;;;;;;;;;8.30;99.90;;;;;;5101994;28;19973;-83
2023/12/09 12:33:52;;;;;;;;;;;8.30;99.90;;;;;;5116741;28;19931;-84
2023/12/09 12:36:18;;;;;;;;;;;8.30;99.90;;;;;;5112930;28;20239;-84
2023/12/09 12:38:45;;;;;;;;;;;8.30;99.90;;;;;;5138930;27;19928;-84
2023/12/09 12:41:10;;;;;;;;;;;8.40;99.90;;;;;;5096808;28;20294;-83
2023/12/09 12:43:36;;;;;;;;;;;8.40;99.90;;;;;;5116422;27;19928;-83
2023/12/09 12:46:03;;;;;;;;;;;8.40;99.90;;;;;;5115914;28;19967;-86
2023/12/09 12:48:29;;;;;;;;;;;8.40;99.90;;;;;;5116159;28;19928;-84
2023/12/09 12:50:55;;;;;;;;;;;8.40;99.90;;;;;;5104320;28;19924;-85
2023/12/09 12:53:23;;;;;;;;;;;8.40;99.90;;;;;;5098440;28;20259;-84
2023/12/09 12:55:48;;;;;;;;;;;8.50;99.90;;;;;;5105159;28;20417;-85
2023/12/09 12:58:14;;;;;;;;;;;8.50;99.90;;;;;;5099851;28;19927;-85
2023/12/09 13:00:39;;;;;;;;;;;8.50;99.90;;;;;;5109881;28;19931;-85
2023/12/09 13:03:06;;;;;;;;;;;8.50;99.90;;;;;;5097661;28;20440;-88
2023/12/09 13:05:32;;;;;;;;;;;8.60;99.90;;;;;;5106136;28;19970;-84
2023/12/09 13:07:58;;;;;;;;;;;8.60;99.90;;;;;;5104185;28;19975;-85
2023/12/09 13:10:23;;;;;;;;;;;8.60;99.90;;;;;;5128885;27;19924;-85
2023/12/09 13:12:49;;;;;;;;;;;8.60;99.90;;;;;;5095593;28;20366;-85
2023/12/09 13:15:15;;;;;;;;;;;8.60;99.90;;;;;;5096783;28;20316;-86
2023/12/09 13:17:40;;;;;;;;;;;8.60;99.90;;;;;;5114534;28;20401;-92
2023/12/09 13:20:09;;;;;;;;;;;8.50;99.90;;;;;;5085979;28;19982;-81
2023/12/09 13:22:35;;;;;;;;;;;8.40;99.90;;;;;;5109251;28;19924;-83
2023/12/09 13:25:03;;;;;;;;;;;8.40;99.90;;;;;;5106297;28;19924;-85
2023/12/09 13:27:30;;;;;;;;;;;8.40;99.90;;;;;;5110414;28;19931;-85
2023/12/09 13:29:55;;;;;;;;;;;8.30;99.90;;;;;;5108974;28;19928;-85
2023/12/09 13:32:21;;;;;;;;;;;8.30;99.90;;;;;;5115162;28;19924;-85
2023/12/09 13:34:46;;;;;;;;;;;8.20;99.90;;;;;;5114601;28;20389;-84
2023/12/09 13:37:13;;;;;;;;;;;8.20;99.90;;;;;;5113755;28;19930;-85
2023/12/09 13:39:39;;;;;;;;;;;8.10;99.90;;;;;;5111870;28;19931;-85
2023/12/09 13:42:04;;;;;;;;;;;8.10;99.90;;;;;;5109832;28;19923;-85
2023/12/09 13:44:30;;;;;;;;;;;8.00;99.90;;;;;;5113753;28;20394;-84
2023/12/09 13:46:56;;;;;;;;;;;8.00;99.90;;;;;;5114012;28;20345;-85
2023/12/09 13:49:21;;;;;;;;;;;8.00;99.90;;;;;;5114943;28;19924;-85
2023/12/09 13:51:47;;;;;;;;;;;8.00;99.90;;;;;;5114633;28;19928;-84
2023/12/09 13:54:12;;;;;;;;;;;7.90;99.90;;;;;;5114668;28;20386;-84
2023/12/09 13:56:38;;;;;;;;;;;8.00;99.90;;;;;;5112870;28;19931;-84
2023/12/09 13:59:04;;;;;;;;;;;7.90;99.90;;;;;;5111053;28;20557;-83
2023/12/09 14:01:29;;;;;;;;;;;8.00;99.90;;;;;;5116148;27;20301;-86
2023/12/09 14:03:55;;;;;;;;;;;8.00;99.90;;;;;;5115352;28;19974;-86
2023/12/09 14:06:21;;;;;;;;;;;8.00;99.90;;;;;;5120103;28;19949;-86
2023/12/09 14:08:46;;;;;;;;;;;8.00;99.90;;;;;;5119719;28;20014;-85
2023/12/09 14:11:15;;;;;;;;;;;7.90;99.90;;;;;;5117157;28;20361;-84
2023/12/09 14:13:40;;;;;;;;;;;7.90;99.90;;;;;;5111213;28;19928;-82
2023/12/09 14:16:07;;;;;;;;;;;7.80;99.90;;;;;;5111864;27;20744;-85
2023/12/09 14:18:32;;;;;;;;;;;7.80;99.90;;;;;;5080694;28;19924;-86
2023/12/09 14:20:58;;;;;;;;;;;7.80;99.90;;;;;;5128399;27;19935;-85
2023/12/09 14:23:27;;;;;;;;;;;7.80;99.90;;;;;;5112233;28;19991;-85